Washington Park, Illinois
Current Conditions -  °F | °C
As of 1:53 AM on Tuesday 27 Jan 2015 (Local Time) from KCPS Reporting Station
Clear Clear  
Wind Chill: 33°   Ceiling: Unl
Heat Index: 40°   Visibility: 10mi
Dew Point: 34°   Wind: 12mph
Humidity: 79%   Direction: 330°NNW
Pressure: 29.94"   Gusts: NA
Location:  38.6323°N, 90.0908°W
Report Text: KCPS 270753Z AUTO 33010KT 10SM CLR 04/01 A2994 RMK AO2 SLP140 T00440011 TSNO
Loading
Personal Weather Stations






























Interactive Weather Map New forecast layout! Learn more

10-Day Weather Forecast

Advertisements
Track Severe Weather on mobile